sensor_id;sensor_type;location;lat;lon;timestamp;P1;durP1;ratioP1;P2;durP2;ratioP2
26536;SDS011;14204;51.262;5.488;2023-03-01T00:01:13;12.68;;;8.18;;
26536;SDS011;14204;51.262;5.488;2023-03-01T00:03:44;12.77;;;8.82;;
26536;SDS011;14204;51.262;5.488;2023-03-01T00:06:09;15.85;;;8.68;;
26536;SDS011;14204;51.262;5.488;2023-03-01T00:08:35;12.00;;;8.50;;
26536;SDS011;14204;51.262;5.488;2023-03-01T00:11:10;12.82;;;8.63;;
26536;SDS011;14204;51.262;5.488;2023-03-01T00:13:42;14.60;;;8.43;;
26536;SDS011;14204;51.262;5.488;2023-03-01T00:16:10;17.00;;;9.35;;
26536;SDS011;14204;51.262;5.488;2023-03-01T00:18:46;10.82;;;8.20;;
26536;SDS011;14204;51.262;5.488;2023-03-01T00:21:13;12.27;;;8.73;;
26536;SDS011;14204;51.262;5.488;2023-03-01T00:23:38;12.05;;;7.63;;
26536;SDS011;14204;51.262;5.488;2023-03-01T00:26:06;13.70;;;9.00;;
26536;SDS011;14204;51.262;5.488;2023-03-01T00:28:33;14.65;;;8.30;;
26536;SDS011;14204;51.262;5.488;2023-03-01T00:31:05;11.55;;;8.38;;
26536;SDS011;14204;51.262;5.488;2023-03-01T00:33:41;15.32;;;10.07;;
26536;SDS011;14204;51.262;5.488;2023-03-01T00:36:08;12.80;;;8.98;;
26536;SDS011;14204;51.262;5.488;2023-03-01T00:38:35;13.75;;;9.50;;
26536;SDS011;14204;51.262;5.488;2023-03-01T00:41:09;12.13;;;8.88;;
26536;SDS011;14204;51.262;5.488;2023-03-01T00:43:36;17.77;;;9.75;;
26536;SDS011;14204;51.262;5.488;2023-03-01T00:46:03;12.68;;;9.18;;
26536;SDS011;14204;51.262;5.488;2023-03-01T00:48:30;17.70;;;10.63;;
26536;SDS011;14204;51.262;5.488;2023-03-01T00:50:56;11.82;;;8.40;;
26536;SDS011;14204;51.262;5.488;2023-03-01T00:53:22;14.07;;;9.45;;
26536;SDS011;14204;51.262;5.488;2023-03-01T00:55:48;10.90;;;7.80;;
26536;SDS011;14204;51.262;5.488;2023-03-01T00:58:13;13.20;;;8.52;;
26536;SDS011;14204;51.262;5.488;2023-03-01T01:00:39;12.10;;;8.40;;
26536;SDS011;14204;51.262;5.488;2023-03-01T01:03:04;13.88;;;8.60;;
26536;SDS011;14204;51.262;5.488;2023-03-01T01:05:30;13.60;;;9.40;;
26536;SDS011;14204;51.262;5.488;2023-03-01T01:07:58;13.93;;;8.93;;
26536;SDS011;14204;51.262;5.488;2023-03-01T01:10:24;13.43;;;9.25;;
26536;SDS011;14204;51.262;5.488;2023-03-01T01:12:50;14.40;;;8.48;;
26536;SDS011;14204;51.262;5.488;2023-03-01T01:15:15;15.38;;;8.95;;
26536;SDS011;14204;51.262;5.488;2023-03-01T01:17:41;11.05;;;8.73;;
26536;SDS011;14204;51.262;5.488;2023-03-01T01:20:07;14.35;;;9.25;;
26536;SDS011;14204;51.262;5.488;2023-03-01T01:22:34;14.88;;;9.05;;
26536;SDS011;14204;51.262;5.488;2023-03-01T01:24:59;15.50;;;9.30;;
26536;SDS011;14204;51.262;5.488;2023-03-01T01:27:25;16.23;;;10.43;;
26536;SDS011;14204;51.262;5.488;2023-03-01T01:29:52;15.18;;;9.77;;
26536;SDS011;14204;51.262;5.488;2023-03-01T01:32:18;16.38;;;9.68;;
26536;SDS011;14204;51.262;5.488;2023-03-01T01:34:44;13.90;;;9.50;;
26536;SDS011;14204;51.262;5.488;2023-03-01T01:37:09;13.20;;;8.90;;
26536;SDS011;14204;51.262;5.488;2023-03-01T01:39:35;14.70;;;9.38;;
26536;SDS011;14204;51.262;5.488;2023-03-01T01:42:01;18.88;;;9.80;;
26536;SDS011;14204;51.262;5.488;2023-03-01T01:44:27;19.45;;;9.00;;
26536;SDS011;14204;51.262;5.488;2023-03-01T01:46:55;15.50;;;9.27;;
26536;SDS011;14204;51.262;5.488;2023-03-01T01:57:45;13.52;;;9.02;;
26536;SDS011;14204;51.262;5.488;2023-03-01T02:00:14;15.70;;;9.52;;
26536;SDS011;14204;51.262;5.488;2023-03-01T02:02:43;14.20;;;10.00;;
26536;SDS011;14204;51.262;5.488;2023-03-01T02:05:24;15.43;;;9.50;;
26536;SDS011;14204;51.262;5.488;2023-03-01T02:07:56;13.98;;;8.75;;
26536;SDS011;14204;51.262;5.488;2023-03-01T02:10:24;12.75;;;9.27;;
26536;SDS011;14204;51.262;5.488;2023-03-01T02:12:50;14.63;;;9.32;;
26536;SDS011;14204;51.262;5.488;2023-03-01T02:15:16;16.27;;;9.70;;
26536;SDS011;14204;51.262;5.488;2023-03-01T02:17:42;13.57;;;9.15;;
26536;SDS011;14204;51.262;5.488;2023-03-01T02:22:55;13.98;;;9.02;;
26536;SDS011;14204;51.262;5.488;2023-03-01T02:30:22;13.50;;;8.23;;
26536;SDS011;14204;51.262;5.488;2023-03-01T02:32:50;14.82;;;8.43;;
26536;SDS011;14204;51.262;5.488;2023-03-01T02:35:17;13.43;;;8.10;;
26536;SDS011;14204;51.262;5.488;2023-03-01T02:37:44;17.42;;;8.80;;
26536;SDS011;14204;51.262;5.488;2023-03-01T02:40:11;15.38;;;9.45;;
26536;SDS011;14204;51.262;5.488;2023-03-01T02:42:51;15.60;;;9.23;;
26536;SDS011;14204;51.262;5.488;2023-03-01T02:45:20;14.98;;;8.90;;
26536;SDS011;14204;51.262;5.488;2023-03-01T02:47:46;14.52;;;9.75;;
26536;SDS011;14204;51.262;5.488;2023-03-01T02:52:57;13.55;;;9.35;;
26536;SDS011;14204;51.262;5.488;2023-03-01T02:55:33;13.38;;;8.73;;
26536;SDS011;14204;51.262;5.488;2023-03-01T02:57:59;15.32;;;9.02;;
26536;SDS011;14204;51.262;5.488;2023-03-01T03:00:29;12.82;;;8.73;;
26536;SDS011;14204;51.262;5.488;2023-03-01T03:02:59;14.70;;;8.95;;
26536;SDS011;14204;51.262;5.488;2023-03-01T03:05:27;13.80;;;9.05;;
26536;SDS011;14204;51.262;5.488;2023-03-01T03:07:54;14.13;;;9.18;;
26536;SDS011;14204;51.262;5.488;2023-03-01T03:10:22;13.52;;;8.55;;
26536;SDS011;14204;51.262;5.488;2023-03-01T03:12:59;14.18;;;8.48;;
26536;SDS011;14204;51.262;5.488;2023-03-01T03:15:30;14.55;;;9.23;;
26536;SDS011;14204;51.262;5.488;2023-03-01T03:17:57;18.05;;;9.93;;
26536;SDS011;14204;51.262;5.488;2023-03-01T03:20:24;13.18;;;10.32;;
26536;SDS011;14204;51.262;5.488;2023-03-01T03:22:52;15.55;;;9.77;;
26536;SDS011;14204;51.262;5.488;2023-03-01T03:25:19;18.00;;;9.82;;
26536;SDS011;14204;51.262;5.488;2023-03-01T03:27:46;13.05;;;8.88;;
26536;SDS011;14204;51.262;5.488;2023-03-01T03:30:17;14.82;;;9.13;;
26536;SDS011;14204;51.262;5.488;2023-03-01T03:32:45;17.63;;;9.18;;
26536;SDS011;14204;51.262;5.488;2023-03-01T03:36:00;13.95;;;8.82;;
26536;SDS011;14204;51.262;5.488;2023-03-01T03:38:11;14.05;;;8.85;;
26536;SDS011;14204;51.262;5.488;2023-03-01T03:40:43;12.73;;;8.73;;
26536;SDS011;14204;51.262;5.488;2023-03-01T03:43:15;15.50;;;9.68;;
26536;SDS011;14204;51.262;5.488;2023-03-01T03:45:43;12.00;;;8.15;;
26536;SDS011;14204;51.262;5.488;2023-03-01T03:48:12;15.60;;;9.38;;
26536;SDS011;14204;51.262;5.488;2023-03-01T03:50:38;14.90;;;9.57;;
26536;SDS011;14204;51.262;5.488;2023-03-01T03:53:09;15.77;;;9.20;;
26536;SDS011;14204;51.262;5.488;2023-03-01T03:55:36;16.25;;;9.65;;
26536;SDS011;14204;51.262;5.488;2023-03-01T03:58:04;17.05;;;10.50;;
26536;SDS011;14204;51.262;5.488;2023-03-01T04:00:32;14.77;;;9.43;;
26536;SDS011;14204;51.262;5.488;2023-03-01T04:02:59;15.63;;;11.00;;
26536;SDS011;14204;51.262;5.488;2023-03-01T04:05:26;15.95;;;10.57;;
26536;SDS011;14204;51.262;5.488;2023-03-01T04:07:52;16.23;;;9.93;;
26536;SDS011;14204;51.262;5.488;2023-03-01T04:10:33;14.90;;;9.55;;
26536;SDS011;14204;51.262;5.488;2023-03-01T04:13:04;15.02;;;10.20;;
26536;SDS011;14204;51.262;5.488;2023-03-01T04:15:32;18.63;;;10.07;;
26536;SDS011;14204;51.262;5.488;2023-03-01T04:17:58;16.77;;;10.40;;
26536;SDS011;14204;51.262;5.488;2023-03-01T04:20:26;17.45;;;10.27;;
26536;SDS011;14204;51.262;5.488;2023-03-01T04:22:57;17.17;;;9.90;;
26536;SDS011;14204;51.262;5.488;2023-03-01T04:25:35;22.42;;;9.95;;
26536;SDS011;14204;51.262;5.488;2023-03-01T04:28:05;17.20;;;9.65;;
26536;SDS011;14204;51.262;5.488;2023-03-01T04:30:31;18.63;;;10.57;;
26536;SDS011;14204;51.262;5.488;2023-03-01T04:33:01;16.48;;;9.93;;
26536;SDS011;14204;51.262;5.488;2023-03-01T04:35:28;16.77;;;10.00;;
26536;SDS011;14204;51.262;5.488;2023-03-01T04:37:55;17.50;;;10.00;;
26536;SDS011;14204;51.262;5.488;2023-03-01T04:40:20;16.98;;;9.38;;
26536;SDS011;14204;51.262;5.488;2023-03-01T04:42:46;17.42;;;9.05;;
26536;SDS011;14204;51.262;5.488;2023-03-01T04:45:12;18.30;;;10.23;;
26536;SDS011;14204;51.262;5.488;2023-03-01T04:47:39;16.23;;;9.82;;
26536;SDS011;14204;51.262;5.488;2023-03-01T04:50:10;19.17;;;10.80;;
26536;SDS011;14204;51.262;5.488;2023-03-01T04:52:36;13.85;;;9.35;;
26536;SDS011;14204;51.262;5.488;2023-03-01T04:55:02;15.23;;;10.63;;
26536;SDS011;14204;51.262;5.488;2023-03-01T04:57:28;13.65;;;9.45;;
26536;SDS011;14204;51.262;5.488;2023-03-01T04:59:54;14.55;;;9.55;;
26536;SDS011;14204;51.262;5.488;2023-03-01T05:02:20;16.75;;;10.15;;
26536;SDS011;14204;51.262;5.488;2023-03-01T05:04:46;18.80;;;10.27;;
26536;SDS011;14204;51.262;5.488;2023-03-01T05:07:11;15.82;;;11.05;;
26536;SDS011;14204;51.262;5.488;2023-03-01T05:09:38;15.68;;;10.93;;
26536;SDS011;14204;51.262;5.488;2023-03-01T05:12:04;18.73;;;10.57;;
26536;SDS011;14204;51.262;5.488;2023-03-01T05:14:29;16.20;;;10.52;;
26536;SDS011;14204;51.262;5.488;2023-03-01T05:16:55;15.40;;;10.57;;
26536;SDS011;14204;51.262;5.488;2023-03-01T05:19:28;18.67;;;10.23;;
26536;SDS011;14204;51.262;5.488;2023-03-01T05:21:56;16.58;;;10.13;;
26536;SDS011;14204;51.262;5.488;2023-03-01T05:24:31;18.23;;;10.85;;
26536;SDS011;14204;51.262;5.488;2023-03-01T05:26:59;17.65;;;10.20;;
26536;SDS011;14204;51.262;5.488;2023-03-01T05:29:26;18.17;;;10.13;;
26536;SDS011;14204;51.262;5.488;2023-03-01T05:31:56;17.80;;;10.32;;
26536;SDS011;14204;51.262;5.488;2023-03-01T05:34:24;18.85;;;10.43;;
26536;SDS011;14204;51.262;5.488;2023-03-01T05:36:51;15.80;;;10.10;;
26536;SDS011;14204;51.262;5.488;2023-03-01T05:39:21;16.08;;;10.27;;
26536;SDS011;14204;51.262;5.488;2023-03-01T05:41:51;16.58;;;10.77;;
26536;SDS011;14204;51.262;5.488;2023-03-01T05:44:21;17.73;;;10.30;;
26536;SDS011;14204;51.262;5.488;2023-03-01T05:46:48;16.77;;;10.02;;
26536;SDS011;14204;51.262;5.488;2023-03-01T05:49:14;19.25;;;10.50;;
26536;SDS011;14204;51.262;5.488;2023-03-01T05:51:40;18.40;;;10.48;;
26536;SDS011;14204;51.262;5.488;2023-03-01T05:54:07;21.15;;;11.93;;
26536;SDS011;14204;51.262;5.488;2023-03-01T05:56:36;16.25;;;10.82;;
26536;SDS011;14204;51.262;5.488;2023-03-01T05:59:02;20.35;;;10.98;;
26536;SDS011;14204;51.262;5.488;2023-03-01T06:01:30;14.40;;;10.13;;
26536;SDS011;14204;51.262;5.488;2023-03-01T06:03:56;16.85;;;10.50;;
26536;SDS011;14204;51.262;5.488;2023-03-01T06:06:22;17.35;;;10.57;;
26536;SDS011;14204;51.262;5.488;2023-03-01T06:08:49;16.40;;;10.15;;
26536;SDS011;14204;51.262;5.488;2023-03-01T06:11:15;15.38;;;10.27;;
26536;SDS011;14204;51.262;5.488;2023-03-01T06:13:41;18.00;;;10.60;;
26536;SDS011;14204;51.262;5.488;2023-03-01T06:16:08;18.77;;;10.38;;
26536;SDS011;14204;51.262;5.488;2023-03-01T06:18:34;20.52;;;10.60;;
26536;SDS011;14204;51.262;5.488;2023-03-01T06:21:00;15.20;;;9.93;;
26536;SDS011;14204;51.262;5.488;2023-03-01T06:23:26;17.10;;;10.13;;
26536;SDS011;14204;51.262;5.488;2023-03-01T06:25:52;16.33;;;10.57;;
26536;SDS011;14204;51.262;5.488;2023-03-01T06:28:17;15.73;;;10.13;;
26536;SDS011;14204;51.262;5.488;2023-03-01T06:30:43;15.82;;;9.73;;
26536;SDS011;14204;51.262;5.488;2023-03-01T06:33:09;18.90;;;10.90;;
26536;SDS011;14204;51.262;5.488;2023-03-01T06:35:35;18.05;;;10.35;;
26536;SDS011;14204;51.262;5.488;2023-03-01T06:38:01;15.23;;;10.15;;
26536;SDS011;14204;51.262;5.488;2023-03-01T06:40:28;20.30;;;11.18;;
26536;SDS011;14204;51.262;5.488;2023-03-01T06:42:54;18.83;;;11.98;;
26536;SDS011;14204;51.262;5.488;2023-03-01T06:45:20;18.50;;;11.00;;
26536;SDS011;14204;51.262;5.488;2023-03-01T06:47:46;17.20;;;11.07;;
26536;SDS011;14204;51.262;5.488;2023-03-01T06:50:12;17.35;;;11.00;;
26536;SDS011;14204;51.262;5.488;2023-03-01T06:52:39;21.42;;;11.52;;
26536;SDS011;14204;51.262;5.488;2023-03-01T06:55:05;24.95;;;11.60;;
26536;SDS011;14204;51.262;5.488;2023-03-01T06:57:31;21.23;;;11.77;;
26536;SDS011;14204;51.262;5.488;2023-03-01T06:59:57;22.52;;;12.07;;
26536;SDS011;14204;51.262;5.488;2023-03-01T07:02:23;17.83;;;10.20;;
26536;SDS011;14204;51.262;5.488;2023-03-01T07:04:49;16.85;;;11.45;;
26536;SDS011;14204;51.262;5.488;2023-03-01T07:07:16;20.60;;;12.35;;
26536;SDS011;14204;51.262;5.488;2023-03-01T07:09:43;18.17;;;11.40;;
26536;SDS011;14204;51.262;5.488;2023-03-01T07:12:09;23.50;;;12.02;;
26536;SDS011;14204;51.262;5.488;2023-03-01T07:14:35;18.67;;;10.10;;
26536;SDS011;14204;51.262;5.488;2023-03-01T07:17:01;16.48;;;10.63;;
26536;SDS011;14204;51.262;5.488;2023-03-01T07:19:26;17.38;;;11.57;;
26536;SDS011;14204;51.262;5.488;2023-03-01T07:21:52;23.05;;;11.13;;
26536;SDS011;14204;51.262;5.488;2023-03-01T07:24:18;21.73;;;10.82;;
26536;SDS011;14204;51.262;5.488;2023-03-01T07:26:47;22.23;;;11.43;;
26536;SDS011;14204;51.262;5.488;2023-03-01T07:29:17;19.50;;;11.77;;
26536;SDS011;14204;51.262;5.488;2023-03-01T07:31:43;19.33;;;11.60;;
26536;SDS011;14204;51.262;5.488;2023-03-01T07:34:09;18.73;;;12.02;;
26536;SDS011;14204;51.262;5.488;2023-03-01T07:36:35;25.20;;;14.02;;
26536;SDS011;14204;51.262;5.488;2023-03-01T07:39:02;24.35;;;13.45;;
26536;SDS011;14204;51.262;5.488;2023-03-01T07:41:28;25.15;;;12.98;;
26536;SDS011;14204;51.262;5.488;2023-03-01T07:43:55;24.95;;;15.57;;
26536;SDS011;14204;51.262;5.488;2023-03-01T07:46:20;28.67;;;15.25;;
26536;SDS011;14204;51.262;5.488;2023-03-01T07:48:46;24.48;;;14.57;;
26536;SDS011;14204;51.262;5.488;2023-03-01T07:51:12;24.23;;;14.32;;
26536;SDS011;14204;51.262;5.488;2023-03-01T07:53:38;24.58;;;14.43;;
26536;SDS011;14204;51.262;5.488;2023-03-01T07:56:05;25.70;;;13.82;;
26536;SDS011;14204;51.262;5.488;2023-03-01T07:58:35;22.08;;;13.80;;
26536;SDS011;14204;51.262;5.488;2023-03-01T08:01:03;20.15;;;11.98;;
26536;SDS011;14204;51.262;5.488;2023-03-01T08:03:30;23.67;;;12.30;;
26536;SDS011;14204;51.262;5.488;2023-03-01T08:05:59;26.95;;;13.68;;
26536;SDS011;14204;51.262;5.488;2023-03-01T08:08:25;25.27;;;12.48;;
26536;SDS011;14204;51.262;5.488;2023-03-01T08:10:51;24.38;;;13.18;;
26536;SDS011;14204;51.262;5.488;2023-03-01T08:13:17;20.42;;;12.02;;
26536;SDS011;14204;51.262;5.488;2023-03-01T08:15:47;21.45;;;11.63;;
26536;SDS011;14204;51.262;5.488;2023-03-01T08:18:14;20.27;;;12.45;;
26536;SDS011;14204;51.262;5.488;2023-03-01T08:20:43;22.25;;;12.52;;
26536;SDS011;14204;51.262;5.488;2023-03-01T08:23:09;23.08;;;12.15;;
26536;SDS011;14204;51.262;5.488;2023-03-01T08:25:35;18.70;;;12.75;;
26536;SDS011;14204;51.262;5.488;2023-03-01T08:28:01;19.05;;;13.48;;
26536;SDS011;14204;51.262;5.488;2023-03-01T08:30:27;25.38;;;12.65;;
26536;SDS011;14204;51.262;5.488;2023-03-01T08:32:52;21.33;;;12.68;;
26536;SDS011;14204;51.262;5.488;2023-03-01T08:35:19;19.15;;;11.77;;
26536;SDS011;14204;51.262;5.488;2023-03-01T08:37:45;18.63;;;11.88;;
26536;SDS011;14204;51.262;5.488;2023-03-01T08:40:11;20.27;;;11.27;;
26536;SDS011;14204;51.262;5.488;2023-03-01T08:42:38;18.48;;;11.52;;
26536;SDS011;14204;51.262;5.488;2023-03-01T08:45:06;18.40;;;12.13;;
26536;SDS011;14204;51.262;5.488;2023-03-01T08:47:32;19.48;;;12.40;;
26536;SDS011;14204;51.262;5.488;2023-03-01T08:49:58;18.80;;;12.65;;
26536;SDS011;14204;51.262;5.488;2023-03-01T08:52:25;17.17;;;10.60;;
26536;SDS011;14204;51.262;5.488;2023-03-01T08:54:51;21.30;;;11.23;;
26536;SDS011;14204;51.262;5.488;2023-03-01T08:57:17;17.85;;;10.88;;
26536;SDS011;14204;51.262;5.488;2023-03-01T08:59:43;17.75;;;11.00;;
26536;SDS011;14204;51.262;5.488;2023-03-01T09:02:11;15.68;;;10.57;;
26536;SDS011;14204;51.262;5.488;2023-03-01T09:04:39;14.70;;;9.70;;
26536;SDS011;14204;51.262;5.488;2023-03-01T09:07:07;19.38;;;11.05;;
26536;SDS011;14204;51.262;5.488;2023-03-01T09:09:33;19.77;;;11.50;;
26536;SDS011;14204;51.262;5.488;2023-03-01T09:11:59;19.23;;;10.90;;
26536;SDS011;14204;51.262;5.488;2023-03-01T09:14:25;15.20;;;9.77;;
26536;SDS011;14204;51.262;5.488;2023-03-01T09:16:50;16.42;;;10.48;;
26536;SDS011;14204;51.262;5.488;2023-03-01T09:19:16;16.90;;;10.55;;
26536;SDS011;14204;51.262;5.488;2023-03-01T09:21:42;21.10;;;10.65;;
26536;SDS011;14204;51.262;5.488;2023-03-01T09:24:17;15.32;;;10.18;;
26536;SDS011;14204;51.262;5.488;2023-03-01T09:26:47;16.20;;;10.73;;
26536;SDS011;14204;51.262;5.488;2023-03-01T09:29:13;15.55;;;10.32;;
26536;SDS011;14204;51.262;5.488;2023-03-01T09:31:40;17.02;;;9.52;;
26536;SDS011;14204;51.262;5.488;2023-03-01T09:34:06;17.15;;;10.90;;
26536;SDS011;14204;51.262;5.488;2023-03-01T09:36:32;21.83;;;11.00;;
26536;SDS011;14204;51.262;5.488;2023-03-01T09:38:58;19.38;;;10.90;;
26536;SDS011;14204;51.262;5.488;2023-03-01T09:44:40;17.58;;;11.10;;
26536;SDS011;14204;51.262;5.488;2023-03-01T09:47:20;19.92;;;12.07;;
26536;SDS011;14204;51.262;5.488;2023-03-01T09:52:46;17.10;;;10.52;;
26536;SDS011;14204;51.262;5.488;2023-03-01T09:55:36;19.92;;;12.25;;
26536;SDS011;14204;51.262;5.488;2023-03-01T10:01:26;19.35;;;12.05;;
26536;SDS011;14204;51.262;5.488;2023-03-01T10:06:31;18.20;;;10.43;;
26536;SDS011;14204;51.262;5.488;2023-03-01T10:09:15;19.52;;;10.63;;
26536;SDS011;14204;51.262;5.488;2023-03-01T10:11:44;20.23;;;11.60;;
26536;SDS011;14204;51.262;5.488;2023-03-01T10:17:03;17.73;;;10.93;;
26536;SDS011;14204;51.262;5.488;2023-03-01T10:19:43;17.63;;;12.13;;
26536;SDS011;14204;51.262;5.488;2023-03-01T10:22:15;18.98;;;12.50;;
26536;SDS011;14204;51.262;5.488;2023-03-01T10:24:43;21.88;;;11.73;;
26536;SDS011;14204;51.262;5.488;2023-03-01T10:27:17;18.45;;;12.32;;
26536;SDS011;14204;51.262;5.488;2023-03-01T10:32:43;22.05;;;13.05;;
26536;SDS011;14204;51.262;5.488;2023-03-01T10:35:19;17.52;;;11.40;;
26536;SDS011;14204;51.262;5.488;2023-03-01T10:40:50;20.00;;;12.65;;
26536;SDS011;14204;51.262;5.488;2023-03-01T10:43:27;18.40;;;12.85;;
26536;SDS011;14204;51.262;5.488;2023-03-01T10:46:13;22.10;;;10.90;;
26536;SDS011;14204;51.262;5.488;2023-03-01T10:49:06;18.08;;;10.90;;
26536;SDS011;14204;51.262;5.488;2023-03-01T10:51:40;18.27;;;11.27;;
26536;SDS011;14204;51.262;5.488;2023-03-01T10:54:22;17.85;;;11.70;;
26536;SDS011;14204;51.262;5.488;2023-03-01T10:56:55;17.02;;;10.80;;
26536;SDS011;14204;51.262;5.488;2023-03-01T10:59:25;19.10;;;10.90;;
26536;SDS011;14204;51.262;5.488;2023-03-01T11:02:03;20.05;;;11.43;;
26536;SDS011;14204;51.262;5.488;2023-03-01T11:04:56;14.93;;;10.10;;
26536;SDS011;14204;51.262;5.488;2023-03-01T11:07:51;15.82;;;10.48;;
26536;SDS011;14204;51.262;5.488;2023-03-01T11:10:35;24.83;;;12.02;;
26536;SDS011;14204;51.262;5.488;2023-03-01T11:13:17;19.38;;;11.57;;
26536;SDS011;14204;51.262;5.488;2023-03-01T11:16:06;19.17;;;10.57;;
26536;SDS011;14204;51.262;5.488;2023-03-01T11:18:35;18.20;;;11.45;;
26536;SDS011;14204;51.262;5.488;2023-03-01T11:21:00;19.83;;;11.80;;
26536;SDS011;14204;51.262;5.488;2023-03-01T11:23:28;22.40;;;11.45;;
26536;SDS011;14204;51.262;5.488;2023-03-01T11:25:56;16.55;;;10.02;;
26536;SDS011;14204;51.262;5.488;2023-03-01T11:28:24;16.20;;;10.65;;
26536;SDS011;14204;51.262;5.488;2023-03-01T11:38:54;17.77;;;11.35;;
26536;SDS011;14204;51.262;5.488;2023-03-01T11:41:23;18.08;;;11.27;;
26536;SDS011;14204;51.262;5.488;2023-03-01T11:44:07;16.15;;;11.88;;
26536;SDS011;14204;51.262;5.488;2023-03-01T11:46:51;15.75;;;11.45;;
26536;SDS011;14204;51.262;5.488;2023-03-01T11:52:30;16.95;;;11.18;;
26536;SDS011;14204;51.262;5.488;2023-03-01T11:55:12;15.35;;;10.27;;
26536;SDS011;14204;51.262;5.488;2023-03-01T12:00:39;17.10;;;11.65;;
26536;SDS011;14204;51.262;5.488;2023-03-01T12:17:17;13.88;;;9.77;;
26536;SDS011;14204;51.262;5.488;2023-03-01T12:22:32;14.63;;;9.80;;
26536;SDS011;14204;51.262;5.488;2023-03-01T12:30:39;15.30;;;10.07;;
26536;SDS011;14204;51.262;5.488;2023-03-01T12:36:34;16.15;;;11.23;;
26536;SDS011;14204;51.262;5.488;2023-03-01T12:50:19;14.55;;;9.38;;
26536;SDS011;14204;51.262;5.488;2023-03-01T12:52:52;18.83;;;9.13;;
26536;SDS011;14204;51.262;5.488;2023-03-01T13:04:00;16.27;;;9.77;;
26536;SDS011;14204;51.262;5.488;2023-03-01T13:11:59;15.60;;;8.70;;
26536;SDS011;14204;51.262;5.488;2023-03-01T13:16:51;14.32;;;8.85;;
26536;SDS011;14204;51.262;5.488;2023-03-01T13:19:18;10.85;;;8.20;;
26536;SDS011;14204;51.262;5.488;2023-03-01T13:21:50;14.77;;;9.47;;
26536;SDS011;14204;51.262;5.488;2023-03-01T13:34:49;12.02;;;7.72;;
26536;SDS011;14204;51.262;5.488;2023-03-01T13:37:23;14.45;;;8.52;;
26536;SDS011;14204;51.262;5.488;2023-03-01T13:39:51;12.75;;;7.68;;
26536;SDS011;14204;51.262;5.488;2023-03-01T13:47:43;12.30;;;8.07;;
26536;SDS011;14204;51.262;5.488;2023-03-01T13:50:20;10.15;;;8.02;;
26536;SDS011;14204;51.262;5.488;2023-03-01T13:52:56;11.20;;;8.35;;
26536;SDS011;14204;51.262;5.488;2023-03-01T13:55:44;9.90;;;8.15;;
26536;SDS011;14204;51.262;5.488;2023-03-01T13:58:16;13.68;;;6.95;;
26536;SDS011;14204;51.262;5.488;2023-03-01T14:01:05;10.50;;;7.53;;
26536;SDS011;14204;51.262;5.488;2023-03-01T14:03:39;15.80;;;7.47;;
26536;SDS011;14204;51.262;5.488;2023-03-01T14:06:13;9.60;;;7.18;;
26536;SDS011;14204;51.262;5.488;2023-03-01T14:08:45;8.93;;;7.03;;
26536;SDS011;14204;51.262;5.488;2023-03-01T14:13:56;10.95;;;7.50;;
26536;SDS011;14204;51.262;5.488;2023-03-01T14:19:29;10.13;;;7.25;;
26536;SDS011;14204;51.262;5.488;2023-03-01T14:24:49;10.55;;;7.43;;
26536;SDS011;14204;51.262;5.488;2023-03-01T14:27:18;9.60;;;7.30;;
26536;SDS011;14204;51.262;5.488;2023-03-01T14:29:53;11.68;;;7.65;;
26536;SDS011;14204;51.262;5.488;2023-03-01T14:32:35;9.05;;;6.93;;
26536;SDS011;14204;51.262;5.488;2023-03-01T14:35:01;12.40;;;7.22;;
26536;SDS011;14204;51.262;5.488;2023-03-01T14:39:54;10.18;;;6.75;;
26536;SDS011;14204;51.262;5.488;2023-03-01T14:42:21;13.15;;;7.18;;
26536;SDS011;14204;51.262;5.488;2023-03-01T14:44:50;10.60;;;6.97;;
26536;SDS011;14204;51.262;5.488;2023-03-01T14:47:27;28.27;;;7.38;;
26536;SDS011;14204;51.262;5.488;2023-03-01T14:50:09;10.27;;;6.35;;
26536;SDS011;14204;51.262;5.488;2023-03-01T14:52:41;10.57;;;6.82;;
26536;SDS011;14204;51.262;5.488;2023-03-01T14:55:16;11.13;;;6.95;;
26536;SDS011;14204;51.262;5.488;2023-03-01T14:57:46;9.20;;;6.95;;
26536;SDS011;14204;51.262;5.488;2023-03-01T15:00:16;10.35;;;7.32;;
26536;SDS011;14204;51.262;5.488;2023-03-01T15:02:48;9.55;;;7.10;;
26536;SDS011;14204;51.262;5.488;2023-03-01T15:05:15;11.23;;;8.15;;
26536;SDS011;14204;51.262;5.488;2023-03-01T15:07:48;9.93;;;6.90;;
26536;SDS011;14204;51.262;5.488;2023-03-01T15:10:19;11.93;;;6.90;;
26536;SDS011;14204;51.262;5.488;2023-03-01T15:12:50;9.38;;;7.47;;
26536;SDS011;14204;51.262;5.488;2023-03-01T15:15:37;10.55;;;7.30;;
26536;SDS011;14204;51.262;5.488;2023-03-01T15:18:13;9.27;;;6.28;;
26536;SDS011;14204;51.262;5.488;2023-03-01T15:21:09;13.45;;;7.10;;
26536;SDS011;14204;51.262;5.488;2023-03-01T15:23:41;8.57;;;6.50;;
26536;SDS011;14204;51.262;5.488;2023-03-01T15:26:16;11.80;;;7.00;;
26536;SDS011;14204;51.262;5.488;2023-03-01T15:28:58;10.57;;;7.55;;
26536;SDS011;14204;51.262;5.488;2023-03-01T15:31:26;10.52;;;6.90;;
26536;SDS011;14204;51.262;5.488;2023-03-01T15:34:07;10.50;;;7.07;;
26536;SDS011;14204;51.262;5.488;2023-03-01T15:36:47;9.45;;;6.90;;
26536;SDS011;14204;51.262;5.488;2023-03-01T15:39:49;10.10;;;7.15;;
26536;SDS011;14204;51.262;5.488;2023-03-01T15:45:08;12.85;;;7.88;;
26536;SDS011;14204;51.262;5.488;2023-03-01T15:48:04;10.43;;;7.72;;
26536;SDS011;14204;51.262;5.488;2023-03-01T15:50:40;8.50;;;6.95;;
26536;SDS011;14204;51.262;5.488;2023-03-01T15:53:12;10.63;;;7.18;;
26536;SDS011;14204;51.262;5.488;2023-03-01T15:55:39;14.07;;;7.78;;
26536;SDS011;14204;51.262;5.488;2023-03-01T15:58:08;11.20;;;8.15;;
26536;SDS011;14204;51.262;5.488;2023-03-01T16:00:38;12.90;;;7.97;;
26536;SDS011;14204;51.262;5.488;2023-03-01T16:03:04;13.60;;;7.90;;
26536;SDS011;14204;51.262;5.488;2023-03-01T16:05:31;12.30;;;7.32;;
26536;SDS011;14204;51.262;5.488;2023-03-01T16:07:59;13.00;;;8.10;;
26536;SDS011;14204;51.262;5.488;2023-03-01T16:10:25;11.13;;;7.90;;
26536;SDS011;14204;51.262;5.488;2023-03-01T16:12:52;12.48;;;7.80;;
26536;SDS011;14204;51.262;5.488;2023-03-01T16:17:57;14.00;;;7.80;;
26536;SDS011;14204;51.262;5.488;2023-03-01T16:20:24;11.82;;;8.02;;
26536;SDS011;14204;51.262;5.488;2023-03-01T16:22:50;13.50;;;8.32;;
26536;SDS011;14204;51.262;5.488;2023-03-01T16:25:17;11.15;;;7.60;;
26536;SDS011;14204;51.262;5.488;2023-03-01T16:27:44;11.52;;;8.38;;
26536;SDS011;14204;51.262;5.488;2023-03-01T16:30:12;14.50;;;8.25;;
26536;SDS011;14204;51.262;5.488;2023-03-01T16:32:39;15.63;;;8.70;;
26536;SDS011;14204;51.262;5.488;2023-03-01T16:35:06;14.48;;;8.77;;
26536;SDS011;14204;51.262;5.488;2023-03-01T16:37:33;12.52;;;8.40;;
26536;SDS011;14204;51.262;5.488;2023-03-01T16:39:59;14.68;;;8.52;;
26536;SDS011;14204;51.262;5.488;2023-03-01T16:42:25;14.27;;;8.10;;
26536;SDS011;14204;51.262;5.488;2023-03-01T16:44:55;15.85;;;9.02;;
26536;SDS011;14204;51.262;5.488;2023-03-01T16:47:21;16.33;;;9.48;;
26536;SDS011;14204;51.262;5.488;2023-03-01T16:49:47;15.57;;;9.73;;
26536;SDS011;14204;51.262;5.488;2023-03-01T16:52:12;18.60;;;10.20;;
26536;SDS011;14204;51.262;5.488;2023-03-01T16:54:38;12.45;;;9.30;;
26536;SDS011;14204;51.262;5.488;2023-03-01T16:57:04;13.70;;;8.60;;
26536;SDS011;14204;51.262;5.488;2023-03-01T16:59:29;11.38;;;8.57;;
26536;SDS011;14204;51.262;5.488;2023-03-01T17:01:55;16.63;;;9.43;;